createdAt,value
2019-01-16T00:01:43.072Z,21.12
2019-01-16T00:04:09.051Z,21.12
2019-01-16T00:06:35.055Z,21.13
2019-01-16T00:09:01.104Z,21.13
2019-01-16T00:11:27.098Z,21.13
2019-01-16T00:13:53.097Z,21.13
2019-01-16T00:16:19.153Z,21.13
2019-01-16T00:18:45.151Z,21.13
2019-01-16T00:21:11.158Z,21.11
2019-01-16T00:23:37.213Z,21.12
2019-01-16T00:26:03.204Z,21.11
2019-01-16T00:28:29.199Z,21.11
2019-01-16T00:30:55.250Z,21.11
2019-01-16T00:33:21.310Z,21.11
2019-01-16T00:35:47.251Z,21.13
2019-01-16T00:38:13.293Z,21.10
2019-01-16T00:40:39.287Z,21.10
2019-01-16T00:43:05.271Z,21.10
2019-01-16T00:45:31.296Z,21.11
2019-01-16T00:47:57.282Z,21.10
2019-01-16T00:50:23.273Z,21.10
2019-01-16T00:52:49.316Z,21.10
2019-01-16T00:55:15.320Z,21.10
2019-01-16T00:57:41.308Z,21.10
2019-01-16T01:00:07.349Z,21.09
2019-01-16T01:02:33.410Z,21.10
2019-01-16T01:04:59.398Z,21.09
2019-01-16T01:07:25.432Z,21.09
2019-01-16T01:09:51.428Z,21.08
2019-01-16T01:12:17.422Z,21.08
2019-01-16T01:14:43.470Z,21.08
2019-01-16T01:17:09.472Z,21.09
2019-01-16T01:19:35.468Z,21.09
2019-01-16T01:22:01.512Z,21.09
2019-01-16T01:24:27.500Z,21.09
2019-01-16T01:26:53.483Z,21.10
2019-01-16T01:29:19.523Z,21.09
2019-01-16T01:31:45.527Z,21.08
2019-01-16T01:34:11.518Z,21.09
2019-01-16T01:36:37.563Z,21.10
2019-01-16T01:39:03.546Z,21.09
2019-01-16T01:41:29.547Z,21.09
2019-01-16T01:43:55.584Z,21.09
2019-01-16T01:46:21.577Z,21.10
2019-01-16T01:48:47.574Z,21.10
2019-01-16T01:51:13.615Z,21.11
2019-01-16T01:53:39.598Z,21.10
2019-01-16T01:56:05.593Z,21.10
2019-01-16T01:58:31.630Z,21.10
2019-01-16T02:00:57.617Z,21.10
2019-01-16T02:03:23.623Z,21.09
2019-01-16T02:05:49.680Z,21.10
2019-01-16T02:08:15.669Z,21.11
2019-01-16T02:10:41.668Z,21.10
2019-01-16T02:13:07.709Z,21.10
2019-01-16T02:15:33.752Z,21.11
2019-01-16T02:17:59.743Z,21.11
2019-01-16T02:20:25.877Z,21.11
2019-01-16T02:22:51.843Z,21.11
2019-01-16T02:25:17.824Z,21.11
2019-01-16T02:27:43.855Z,21.11
2019-01-16T02:30:09.849Z,21.12
2019-01-16T02:32:35.827Z,21.11
2019-01-16T02:35:01.877Z,21.12
2019-01-16T02:37:27.867Z,21.11
2019-01-16T02:39:53.864Z,21.12
2019-01-16T02:42:19.918Z,21.13
2019-01-16T02:44:46.043Z,21.11
2019-01-16T02:47:12.028Z,21.11
2019-01-16T02:49:38.078Z,21.11
2019-01-16T02:52:04.068Z,21.11
2019-01-16T02:54:30.047Z,21.11
2019-01-16T02:56:56.102Z,21.11
2019-01-16T02:59:22.081Z,21.12
2019-01-16T03:01:48.087Z,21.11
2019-01-16T03:04:14.125Z,21.11
2019-01-16T03:06:40.106Z,21.11
2019-01-16T03:09:06.091Z,21.10
2019-01-16T03:11:32.143Z,21.10
2019-01-16T03:13:58.147Z,21.10
2019-01-16T03:16:24.138Z,21.10
2019-01-16T03:18:50.177Z,21.10
2019-01-16T03:21:16.187Z,21.10
2019-01-16T03:23:42.189Z,21.10
2019-01-16T03:26:08.227Z,21.10
2019-01-16T03:28:34.229Z,21.10
2019-01-16T03:31:00.216Z,21.09
2019-01-16T03:33:26.244Z,21.10
2019-01-16T03:35:52.227Z,21.09
2019-01-16T03:38:18.254Z,21.10
2019-01-16T03:40:44.306Z,21.10
2019-01-16T03:43:10.298Z,21.10
2019-01-16T03:45:36.315Z,21.10
2019-01-16T03:48:02.338Z,21.10
2019-01-16T03:50:28.335Z,21.10
2019-01-16T03:52:54.337Z,21.09
2019-01-16T03:55:20.364Z,21.10
2019-01-16T03:57:46.355Z,21.09
2019-01-16T04:00:12.353Z,21.09
2019-01-16T04:02:38.412Z,21.09
2019-01-16T04:05:04.397Z,21.09
2019-01-16T04:07:30.410Z,21.09
2019-01-16T04:09:56.443Z,21.10
2019-01-16T04:12:22.438Z,21.09
2019-01-16T04:14:48.409Z,21.08
2019-01-16T04:17:14.461Z,21.09
2019-01-16T04:19:40.455Z,21.09
2019-01-16T04:22:06.438Z,21.09
2019-01-16T04:24:32.491Z,21.09
2019-01-16T04:26:58.535Z,21.10
2019-01-16T04:29:24.473Z,21.09
2019-01-16T04:31:50.509Z,21.09
2019-01-16T04:34:16.497Z,21.08
2019-01-16T04:36:42.485Z,21.08
2019-01-16T04:39:08.786Z,21.07
2019-01-16T04:41:34.764Z,21.09
2019-01-16T04:44:00.755Z,21.09
2019-01-16T04:46:26.803Z,21.08
2019-01-16T04:48:52.794Z,21.08
2019-01-16T04:51:18.784Z,21.08
2019-01-16T04:53:44.935Z,21.09
2019-01-16T04:56:11.061Z,21.06
2019-01-16T04:58:37.065Z,21.06
2019-01-16T05:01:03.067Z,21.05
2019-01-16T05:03:29.072Z,21.04
2019-01-16T05:05:55.061Z,21.04
2019-01-16T05:08:21.105Z,21.02
2019-01-16T05:10:47.112Z,21.03
2019-01-16T05:13:13.129Z,21.02
2019-01-16T05:15:39.178Z,21.01
2019-01-16T05:18:05.160Z,21.01
2019-01-16T05:20:31.166Z,21.01
2019-01-16T05:22:57.199Z,21.00
2019-01-16T05:25:23.200Z,21.00
2019-01-16T05:27:49.190Z,21.00
2019-01-16T05:30:15.242Z,21.00
2019-01-16T05:32:41.254Z,21.00
2019-01-16T05:35:07.272Z,20.98
2019-01-16T05:37:33.319Z,20.99
2019-01-16T05:39:59.309Z,20.99
2019-01-16T05:42:25.296Z,20.98
2019-01-16T05:44:51.333Z,20.97
2019-01-16T05:47:17.338Z,20.98
2019-01-16T05:49:46.769Z,20.98
2019-01-16T05:52:09.372Z,20.95
2019-01-16T05:54:35.414Z,20.95
2019-01-16T05:57:01.422Z,20.96
2019-01-16T05:59:27.485Z,20.96
2019-01-16T06:01:53.461Z,20.97
2019-01-16T06:04:19.461Z,20.96
2019-01-16T06:06:45.524Z,20.98
2019-01-16T06:09:11.529Z,20.96
2019-01-16T06:11:37.558Z,20.97
2019-01-16T06:14:03.628Z,20.97
2019-01-16T06:16:29.617Z,20.96
2019-01-16T06:18:55.615Z,20.96
2019-01-16T06:21:21.679Z,20.96
2019-01-16T06:23:47.666Z,20.97
2019-01-16T06:26:13.763Z,20.97
2019-01-16T06:28:39.797Z,20.96
2019-01-16T06:31:05.790Z,20.95
2019-01-16T06:33:31.771Z,20.96
2019-01-16T06:35:57.828Z,20.95
2019-01-16T06:38:23.871Z,20.95
2019-01-16T06:40:49.829Z,20.95
2019-01-16T06:43:15.873Z,20.95
2019-01-16T06:45:41.866Z,20.94
2019-01-16T06:48:07.876Z,20.93
2019-01-16T06:50:33.897Z,20.93
2019-01-16T06:53:00.076Z,20.92
2019-01-16T06:55:26.057Z,20.93
2019-01-16T06:57:52.092Z,20.92
2019-01-16T07:00:18.142Z,20.93
2019-01-16T07:02:44.142Z,20.93
2019-01-16T07:05:10.179Z,20.92
2019-01-16T07:07:36.195Z,20.92
2019-01-16T07:10:02.232Z,20.92
2019-01-16T07:12:28.266Z,20.91
2019-01-16T07:14:54.262Z,20.93
2019-01-16T07:17:20.256Z,20.92
2019-01-16T07:19:46.300Z,20.92
2019-01-16T07:22:12.294Z,20.92
2019-01-16T07:24:38.327Z,20.92
2019-01-16T07:27:04.331Z,20.93
2019-01-16T07:29:30.394Z,20.93
2019-01-16T07:31:56.415Z,20.92
2019-01-16T07:34:22.462Z,20.92
2019-01-16T07:36:48.469Z,20.92
2019-01-16T07:39:14.487Z,20.93
2019-01-16T07:41:40.547Z,20.93
2019-01-16T07:44:06.562Z,20.93
2019-01-16T07:46:32.562Z,20.94
2019-01-16T07:48:58.618Z,20.93
2019-01-16T07:51:24.609Z,20.93
2019-01-16T07:53:50.622Z,20.93
2019-01-16T07:56:16.663Z,20.93
2019-01-16T07:58:42.662Z,20.93
2019-01-16T08:01:08.661Z,20.93
2019-01-16T08:03:34.718Z,20.94
2019-01-16T08:06:01.654Z,20.93
2019-01-16T08:08:27.651Z,20.93
2019-01-16T08:10:53.734Z,20.93
2019-01-16T08:13:19.730Z,20.93
2019-01-16T08:15:45.723Z,20.95
2019-01-16T08:18:11.756Z,20.94
2019-01-16T08:20:37.783Z,20.98
2019-01-16T08:23:03.831Z,21.06
2019-01-16T08:25:29.831Z,21.12
2019-01-16T08:27:55.833Z,21.11
2019-01-16T08:30:21.819Z,21.08
2019-01-16T08:32:47.870Z,21.06
2019-01-16T08:35:13.863Z,21.04
2019-01-16T08:37:39.841Z,21.03
2019-01-16T08:40:05.922Z,21.04
2019-01-16T08:42:31.884Z,21.10
2019-01-16T08:44:57.872Z,21.05
2019-01-16T08:47:23.915Z,21.03
2019-01-16T08:49:49.889Z,21.06
2019-01-16T08:52:15.880Z,21.02
2019-01-16T08:54:41.905Z,21.01
2019-01-16T08:57:07.905Z,21.00
2019-01-16T08:59:33.891Z,21.00
2019-01-16T09:01:59.934Z,21.00
2019-01-16T09:04:25.929Z,20.98
2019-01-16T09:06:51.925Z,20.96
2019-01-16T09:09:18.012Z,20.97
2019-01-16T09:11:44.013Z,20.99
2019-01-16T09:14:10.015Z,21.00
2019-01-16T09:16:36.071Z,21.01
2019-01-16T09:19:02.051Z,21.01
2019-01-16T09:21:28.041Z,21.02
2019-01-16T09:23:54.198Z,21.01
2019-01-16T09:26:20.178Z,21.02
2019-01-16T09:28:46.182Z,21.03
2019-01-16T09:31:12.212Z,21.04
2019-01-16T09:33:38.198Z,21.05
2019-01-16T09:36:04.183Z,21.05
2019-01-16T09:38:30.234Z,21.06
2019-01-16T09:40:56.232Z,21.07
2019-01-16T09:43:22.215Z,21.08
2019-01-16T09:45:48.252Z,21.08
2019-01-16T09:48:14.264Z,21.08
2019-01-16T09:50:47.620Z,21.08
2019-01-16T09:53:06.345Z,21.09
2019-01-16T09:55:32.478Z,21.09
2019-01-16T09:57:58.468Z,21.11
2019-01-16T10:00:24.532Z,21.12
2019-01-16T10:02:50.528Z,21.12
2019-01-16T10:05:16.528Z,21.12
2019-01-16T10:07:42.593Z,21.13
2019-01-16T10:10:08.589Z,21.15
2019-01-16T10:12:34.576Z,21.15
2019-01-16T10:15:00.701Z,21.17
2019-01-16T10:17:26.658Z,21.19
2019-01-16T10:19:52.676Z,21.20
2019-01-16T10:22:18.706Z,21.21
2019-01-16T10:24:44.739Z,21.23
2019-01-16T10:27:10.706Z,21.24
2019-01-16T10:29:36.745Z,21.27
2019-01-16T10:32:02.744Z,21.27
2019-01-16T10:34:28.736Z,21.29
2019-01-16T10:36:54.797Z,21.30
2019-01-16T10:39:20.787Z,21.30
2019-01-16T10:41:46.776Z,21.32
2019-01-16T10:44:12.821Z,21.33
2019-01-16T10:46:38.864Z,21.31
2019-01-16T10:49:04.858Z,21.31
2019-01-16T10:51:30.883Z,21.29
2019-01-16T10:53:56.886Z,21.30
2019-01-16T10:56:22.883Z,21.29
2019-01-16T10:58:48.934Z,21.29
2019-01-16T11:01:14.932Z,21.29
2019-01-16T11:03:40.957Z,21.30
2019-01-16T11:06:06.988Z,21.30
2019-01-16T11:08:32.965Z,21.31
2019-01-16T11:10:58.953Z,21.32
2019-01-16T11:13:28.310Z,21.33
2019-01-16T11:15:54.193Z,21.33
2019-01-16T11:18:20.297Z,21.33
2019-01-16T11:20:46.336Z,21.34
2019-01-16T11:23:12.345Z,21.32
2019-01-16T11:25:38.348Z,21.33
2019-01-16T11:28:04.384Z,21.34
2019-01-16T11:30:30.372Z,21.36
2019-01-16T11:32:56.379Z,21.36
2019-01-16T11:35:22.453Z,21.37
2019-01-16T11:37:48.454Z,21.37
2019-01-16T11:40:14.457Z,21.38
2019-01-16T11:42:40.492Z,21.39
2019-01-16T11:45:06.481Z,21.39
2019-01-16T11:47:32.464Z,21.40
2019-01-16T11:49:58.498Z,21.42
2019-01-16T11:52:24.483Z,21.42
2019-01-16T11:54:50.474Z,21.44
2019-01-16T11:57:16.506Z,21.44
2019-01-16T11:59:42.505Z,21.45
2019-01-16T12:02:08.514Z,21.48
2019-01-16T12:04:34.561Z,21.48
2019-01-16T12:07:00.566Z,21.48
2019-01-16T12:09:26.556Z,21.50
2019-01-16T12:11:52.604Z,21.52
2019-01-16T12:14:18.590Z,21.52
2019-01-16T12:16:44.580Z,21.54
2019-01-16T12:19:10.620Z,21.54
2019-01-16T12:21:36.622Z,21.55
2019-01-16T12:24:02.631Z,21.56
2019-01-16T12:26:28.680Z,21.58
2019-01-16T12:28:54.667Z,21.59
2019-01-16T12:31:20.676Z,21.60
2019-01-16T12:33:46.727Z,21.60
2019-01-16T12:36:12.728Z,21.62
2019-01-16T12:38:39.577Z,21.67
2019-01-16T12:41:06.003Z,21.67
2019-01-16T12:43:32.069Z,21.66
2019-01-16T12:45:58.075Z,21.67
2019-01-16T12:48:24.117Z,21.68
2019-01-16T12:50:50.128Z,21.67
2019-01-16T12:53:16.154Z,21.69
2019-01-16T12:55:42.165Z,21.72
2019-01-16T12:58:13.349Z,21.74
2019-01-16T13:00:34.231Z,21.75
2019-01-16T13:03:00.427Z,21.74
2019-01-16T13:05:26.427Z,21.73
2019-01-16T13:07:52.693Z,21.75
2019-01-16T13:10:19.110Z,21.77
2019-01-16T13:12:47.819Z,21.77
2019-01-16T13:15:13.831Z,21.77
2019-01-16T13:17:40.012Z,21.80
2019-01-16T13:20:06.025Z,21.76
2019-01-16T13:22:32.038Z,21.75
2019-01-16T13:24:58.240Z,21.72
2019-01-16T13:27:24.414Z,21.70
2019-01-16T13:29:50.433Z,21.72
2019-01-16T13:32:16.492Z,21.74
2019-01-16T13:34:42.482Z,21.75
2019-01-16T13:37:08.484Z,21.74
2019-01-16T13:39:34.555Z,21.72
2019-01-16T13:42:02.469Z,21.71
2019-01-16T13:44:28.463Z,21.72
2019-01-16T13:46:54.513Z,21.72
2019-01-16T13:49:20.563Z,21.72
2019-01-16T13:51:46.556Z,21.71
2019-01-16T13:54:12.625Z,21.70
2019-01-16T13:56:38.660Z,21.70
2019-01-16T13:59:04.656Z,21.70
2019-01-16T14:01:30.722Z,21.69
2019-01-16T14:03:56.739Z,21.69
2019-01-16T14:06:22.747Z,21.68
2019-01-16T14:08:48.838Z,21.69
2019-01-16T14:11:14.810Z,21.70
2019-01-16T14:13:40.813Z,21.70
2019-01-16T14:16:09.352Z,21.67
2019-01-16T14:18:37.314Z,21.68
2019-01-16T14:21:01.369Z,21.67
2019-01-16T14:23:28.472Z,21.66
2019-01-16T14:25:54.471Z,21.62
2019-01-16T14:28:20.546Z,21.59
2019-01-16T14:30:46.601Z,21.60
2019-01-16T14:33:12.616Z,21.57
2019-01-16T14:35:38.616Z,21.56
2019-01-16T14:38:05.688Z,21.56
2019-01-16T14:40:31.686Z,21.54
2019-01-16T14:42:57.701Z,21.57
2019-01-16T14:45:23.767Z,21.55
2019-01-16T14:47:49.756Z,21.51
2019-01-16T14:50:15.773Z,21.51
2019-01-16T14:52:41.985Z,21.49
2019-01-16T14:55:07.984Z,21.47
2019-01-16T14:57:33.971Z,21.44
2019-01-16T15:00:00.025Z,21.43
2019-01-16T15:02:26.027Z,21.41
2019-01-16T15:04:52.032Z,21.40
2019-01-16T15:07:18.074Z,21.38
2019-01-16T15:09:44.080Z,21.37
2019-01-16T15:12:10.103Z,21.36
2019-01-16T15:14:36.176Z,21.34
2019-01-16T15:17:02.182Z,21.33
2019-01-16T15:19:28.163Z,21.32
2019-01-16T15:21:54.216Z,21.31
2019-01-16T15:24:20.232Z,21.30
2019-01-16T15:26:46.229Z,21.28
2019-01-16T15:29:12.287Z,21.27
2019-01-16T15:31:38.276Z,21.27
2019-01-16T15:34:04.299Z,21.26
2019-01-16T15:36:30.722Z,21.25
2019-01-16T15:38:56.740Z,21.24
2019-01-16T15:41:22.847Z,21.24
2019-01-16T15:43:49.625Z,21.23
2019-01-16T15:46:14.980Z,21.24
2019-01-16T15:48:41.028Z,21.24
2019-01-16T15:51:07.096Z,21.24
2019-01-16T15:53:33.110Z,21.23
2019-01-16T15:55:59.113Z,21.24
2019-01-16T15:58:25.161Z,21.24
2019-01-16T16:00:51.273Z,21.24
2019-01-16T16:03:17.387Z,21.24
2019-01-16T16:05:43.501Z,21.24
2019-01-16T16:08:09.687Z,21.24
2019-01-16T16:10:35.774Z,21.25
2019-01-16T16:13:01.812Z,21.26
2019-01-16T16:15:27.900Z,21.25
2019-01-16T16:17:54.068Z,21.24
2019-01-16T16:20:20.093Z,21.25
2019-01-16T16:22:46.102Z,21.24
2019-01-16T16:25:12.102Z,21.25
2019-01-16T16:27:38.467Z,21.25
2019-01-16T16:30:04.480Z,21.25
2019-01-16T16:32:30.519Z,21.25
2019-01-16T16:34:56.576Z,21.25
2019-01-16T16:37:22.579Z,21.24
2019-01-16T16:39:48.641Z,21.25
2019-01-16T16:42:14.644Z,21.25
2019-01-16T16:44:43.204Z,21.24
2019-01-16T16:47:09.326Z,21.24
2019-01-16T16:49:35.651Z,21.24
2019-01-16T16:52:01.675Z,21.23
2019-01-16T16:54:27.675Z,21.23
2019-01-16T16:56:53.769Z,21.22
2019-01-16T16:59:20.040Z,21.22
2019-01-16T17:01:46.116Z,21.22
2019-01-16T17:04:12.230Z,21.21
2019-01-16T17:06:38.217Z,21.21
2019-01-16T17:09:04.216Z,21.22
2019-01-16T17:11:30.259Z,21.22
2019-01-16T17:13:56.336Z,21.21
2019-01-16T17:16:22.414Z,21.21
2019-01-16T17:18:48.497Z,21.21
2019-01-16T17:21:14.677Z,21.20
2019-01-16T17:23:40.663Z,21.20
2019-01-16T17:26:06.706Z,21.20
2019-01-16T17:28:32.713Z,21.20
2019-01-16T17:30:58.715Z,21.19
2019-01-16T17:33:24.765Z,21.19
2019-01-16T17:35:50.773Z,21.18
2019-01-16T17:38:16.814Z,21.18
2019-01-16T17:40:42.852Z,21.18
2019-01-16T17:43:08.871Z,21.18
2019-01-16T17:45:34.891Z,21.17
2019-01-16T17:48:00.937Z,21.17
2019-01-16T17:50:26.941Z,21.15
2019-01-16T17:52:52.941Z,21.16
2019-01-16T17:55:19.011Z,21.16
2019-01-16T17:57:45.031Z,21.16
2019-01-16T18:00:11.046Z,21.15
2019-01-16T18:02:37.445Z,21.16
2019-01-16T18:05:03.742Z,21.16
2019-01-16T18:07:29.859Z,21.15
2019-01-16T18:09:56.019Z,21.15
2019-01-16T18:12:22.034Z,21.14
2019-01-16T18:14:48.073Z,21.14
2019-01-16T18:17:14.133Z,21.14
2019-01-16T18:19:40.152Z,21.15
2019-01-16T18:22:06.158Z,21.15
2019-01-16T18:24:32.209Z,21.16
2019-01-16T18:26:58.259Z,21.17
2019-01-16T18:29:24.325Z,21.16
2019-01-16T18:31:50.405Z,21.17
2019-01-16T18:34:16.389Z,21.17
2019-01-16T18:36:42.395Z,21.16
2019-01-16T18:39:08.439Z,21.15
2019-01-16T18:41:34.478Z,21.14
2019-01-16T18:44:00.488Z,21.14
2019-01-16T18:46:26.630Z,21.14
2019-01-16T18:48:52.556Z,21.13
2019-01-16T18:51:18.574Z,21.14
2019-01-16T18:53:44.629Z,21.13
2019-01-16T18:56:10.650Z,21.13
2019-01-16T18:58:36.665Z,21.13
2019-01-16T19:01:02.720Z,21.14
2019-01-16T19:03:29.051Z,21.12
2019-01-16T19:05:55.078Z,21.14
2019-01-16T19:08:21.133Z,21.13
2019-01-16T19:10:47.119Z,21.13
2019-01-16T19:13:13.109Z,21.12
2019-01-16T19:15:39.168Z,21.13
2019-01-16T19:18:05.202Z,21.13
2019-01-16T19:20:31.185Z,21.13
2019-01-16T19:22:58.206Z,21.12
2019-01-16T19:25:23.232Z,21.14
2019-01-16T19:27:49.240Z,21.14
2019-01-16T19:30:15.286Z,21.13
2019-01-16T19:32:41.292Z,21.13
2019-01-16T19:35:07.293Z,21.13
2019-01-16T19:37:33.345Z,21.13
2019-01-16T19:39:59.354Z,21.13
2019-01-16T19:42:25.341Z,21.13
2019-01-16T19:44:51.395Z,21.12
2019-01-16T19:47:17.451Z,21.14
2019-01-16T19:49:43.487Z,21.14
2019-01-16T19:52:09.634Z,21.14
2019-01-16T19:54:35.685Z,21.16
2019-01-16T19:57:01.700Z,21.18
2019-01-16T19:59:27.740Z,21.18
2019-01-16T20:01:53.742Z,21.16
2019-01-16T20:04:19.753Z,21.19
2019-01-16T20:06:45.794Z,21.20
2019-01-16T20:09:11.852Z,21.20
2019-01-16T20:11:37.925Z,21.19
2019-01-16T20:14:03.989Z,21.17
2019-01-16T20:16:29.987Z,21.18
2019-01-16T20:18:55.980Z,21.17
2019-01-16T20:21:22.014Z,21.18
2019-01-16T20:23:48.033Z,21.18
2019-01-16T20:26:14.034Z,21.20
2019-01-16T20:28:40.074Z,21.19
2019-01-16T20:31:06.088Z,21.19
2019-01-16T20:33:32.088Z,21.19
2019-01-16T20:35:58.145Z,21.21
2019-01-16T20:38:24.172Z,21.20
2019-01-16T20:40:50.369Z,21.20
2019-01-16T20:43:16.412Z,21.19
2019-01-16T20:45:42.427Z,21.21
2019-01-16T20:48:08.524Z,21.19
2019-01-16T20:50:34.893Z,21.19
2019-01-16T20:53:00.996Z,21.17
2019-01-16T20:55:26.953Z,21.18
2019-01-16T20:57:53.028Z,21.18
2019-01-16T21:00:19.018Z,21.17
2019-01-16T21:02:45.018Z,21.17
2019-01-16T21:05:11.069Z,21.21
2019-01-16T21:07:37.057Z,21.23
2019-01-16T21:10:03.054Z,21.24
2019-01-16T21:12:29.095Z,21.25
2019-01-16T21:14:55.106Z,21.25
2019-01-16T21:17:21.091Z,21.28
2019-01-16T21:19:47.134Z,21.28
2019-01-16T21:22:13.131Z,21.32
2019-01-16T21:24:39.166Z,21.28
2019-01-16T21:27:05.253Z,21.32
2019-01-16T21:29:31.198Z,21.32
2019-01-16T21:31:57.183Z,21.31
2019-01-16T21:34:23.230Z,21.30
2019-01-16T21:36:49.210Z,21.29
2019-01-16T21:39:15.205Z,21.32
2019-01-16T21:41:41.242Z,21.33
2019-01-16T21:44:07.245Z,21.34
2019-01-16T21:46:33.238Z,21.34
2019-01-16T21:48:59.279Z,21.34
2019-01-16T21:51:25.278Z,21.34
2019-01-16T21:53:51.277Z,21.33
2019-01-16T21:56:17.316Z,21.35
2019-01-16T21:58:43.388Z,21.35
2019-01-16T22:01:09.385Z,21.34
2019-01-16T22:03:35.433Z,21.35
2019-01-16T22:06:01.446Z,21.39
2019-01-16T22:08:27.426Z,21.34
2019-01-16T22:10:53.458Z,21.32
2019-01-16T22:13:19.445Z,21.32
2019-01-16T22:15:45.429Z,21.32
2019-01-16T22:18:11.484Z,21.31
2019-01-16T22:20:37.462Z,21.31
2019-01-16T22:23:03.462Z,21.31
2019-01-16T22:25:29.495Z,21.29
2019-01-16T22:27:55.485Z,21.28
2019-01-16T22:30:21.491Z,21.30
2019-01-16T22:32:47.527Z,21.29
2019-01-16T22:35:13.521Z,21.30
2019-01-16T22:37:39.517Z,21.29
2019-01-16T22:40:05.557Z,21.28
2019-01-16T22:42:31.557Z,21.32
2019-01-16T22:44:57.546Z,21.36
2019-01-16T22:47:23.591Z,21.35
2019-01-16T22:49:49.580Z,21.34
2019-01-16T22:52:15.586Z,21.34
2019-01-16T22:54:41.631Z,21.34
2019-01-16T22:57:07.636Z,21.32
2019-01-16T22:59:33.630Z,21.33
2019-01-16T23:01:59.654Z,21.34
2019-01-16T23:04:25.658Z,21.33
2019-01-16T23:06:51.656Z,21.35
2019-01-16T23:09:17.673Z,21.34
2019-01-16T23:11:43.710Z,21.36
2019-01-16T23:14:09.737Z,21.35
2019-01-16T23:16:35.743Z,21.36
2019-01-16T23:19:01.770Z,21.36
2019-01-16T23:21:27.762Z,21.35
2019-01-16T23:23:53.753Z,21.34
2019-01-16T23:26:19.786Z,21.33
2019-01-16T23:28:45.784Z,21.30
2019-01-16T23:31:11.785Z,21.28
2019-01-16T23:33:37.820Z,21.27
2019-01-16T23:36:03.820Z,21.29
2019-01-16T23:38:29.818Z,21.27
2019-01-16T23:40:56.062Z,21.27
2019-01-16T23:43:22.074Z,21.27
2019-01-16T23:45:48.053Z,21.26
2019-01-16T23:48:14.084Z,21.25
2019-01-16T23:50:40.070Z,21.25
2019-01-16T23:53:06.528Z,21.25
2019-01-16T23:55:33.172Z,21.24
2019-01-16T23:57:59.176Z,21.23
